createdAt,value
2018-02-27T00:01:48.944Z,101966.32
2018-02-27T00:04:16.323Z,101958.70
2018-02-27T00:06:43.791Z,101962.79
2018-02-27T00:09:11.169Z,101960.03
2018-02-27T00:11:38.564Z,101958.71
2018-02-27T00:14:05.975Z,101959.55
2018-02-27T00:16:33.370Z,101949.92
2018-02-27T00:19:00.756Z,101948.33
2018-02-27T00:21:28.243Z,101954.05
2018-02-27T00:23:55.698Z,101950.43
2018-02-27T00:26:23.149Z,101953.72
2018-02-27T00:28:50.622Z,101954.11
2018-02-27T00:31:18.015Z,101955.81
2018-02-27T00:33:45.407Z,101950.19
2018-02-27T00:36:12.822Z,101947.78
2018-02-27T00:38:40.214Z,101946.00
2018-02-27T00:41:07.602Z,101939.87
2018-02-27T00:43:34.990Z,101937.77
2018-02-27T00:46:02.384Z,101946.16
2018-02-27T00:48:29.768Z,101946.02
2018-02-27T00:50:57.160Z,101948.45
2018-02-27T00:53:24.547Z,101939.30
2018-02-27T00:55:51.938Z,101944.86
2018-02-27T00:58:19.322Z,101937.73
2018-02-27T01:00:46.732Z,101936.64
2018-02-27T01:03:14.114Z,101926.86
2018-02-27T01:05:41.518Z,101928.40
2018-02-27T01:08:08.979Z,101924.00
2018-02-27T01:10:36.370Z,101921.95
2018-02-27T01:13:03.758Z,101917.95
2018-02-27T01:15:31.151Z,101913.72
2018-02-27T01:17:58.543Z,101908.59
2018-02-27T01:20:25.938Z,101914.55
2018-02-27T01:22:53.327Z,101914.56
2018-02-27T01:25:20.710Z,101911.48
2018-02-27T01:27:48.120Z,101903.18
2018-02-27T01:30:15.506Z,101898.64
2018-02-27T01:32:42.914Z,101898.00
2018-02-27T01:35:10.291Z,101896.70
2018-02-27T01:37:37.686Z,101898.20
2018-02-27T01:40:05.074Z,101897.50
2018-02-27T01:42:32.463Z,101894.41
2018-02-27T01:44:59.890Z,101888.27
2018-02-27T01:47:27.332Z,101892.13
2018-02-27T01:49:54.806Z,101887.97
2018-02-27T01:52:22.198Z,101887.56
2018-02-27T01:54:49.587Z,101888.50
2018-02-27T01:57:16.981Z,101889.70
2018-02-27T01:59:44.370Z,101879.70
2018-02-27T02:02:11.764Z,101879.23
2018-02-27T02:04:39.179Z,101875.59
2018-02-27T02:07:06.570Z,101880.14
2018-02-27T02:09:33.958Z,101878.55
2018-02-27T02:12:01.351Z,101881.77
2018-02-27T02:14:28.736Z,101877.52
2018-02-27T02:16:56.132Z,101874.69
2018-02-27T02:19:23.523Z,101872.66
2018-02-27T02:21:50.977Z,101868.75
2018-02-27T02:24:18.430Z,101869.24
2018-02-27T02:26:45.824Z,101860.64
2018-02-27T02:29:13.242Z,101854.83
2018-02-27T02:31:40.644Z,101850.28
2018-02-27T02:34:08.032Z,101849.73
2018-02-27T02:36:35.507Z,101845.16
2018-02-27T02:39:02.894Z,101853.19
2018-02-27T02:41:30.288Z,101859.25
2018-02-27T02:43:57.767Z,101858.80
2018-02-27T02:46:25.170Z,101855.94
2018-02-27T02:48:52.550Z,101856.23
2018-02-27T02:51:19.938Z,101858.63
2018-02-27T02:53:47.488Z,101851.28
2018-02-27T02:56:14.864Z,101842.77
2018-02-27T02:58:42.254Z,101845.87
2018-02-27T03:01:09.754Z,101853.79
2018-02-27T03:03:37.293Z,101848.38
2018-02-27T03:06:04.777Z,101844.23
2018-02-27T03:08:32.162Z,101842.78
2018-02-27T03:10:59.550Z,101838.50
2018-02-27T03:13:26.946Z,101836.23
2018-02-27T03:15:54.390Z,101824.02
2018-02-27T03:18:21.859Z,101813.94
2018-02-27T03:20:49.267Z,101806.64
2018-02-27T03:23:16.649Z,101820.00
2018-02-27T03:25:44.039Z,101826.55
2018-02-27T03:28:11.742Z,101820.09
2018-02-27T03:30:39.138Z,101819.80
2018-02-27T03:33:06.526Z,101816.55
2018-02-27T03:35:33.916Z,101815.17
2018-02-27T03:38:01.408Z,101815.19
2018-02-27T03:40:28.820Z,101803.22
2018-02-27T03:42:56.212Z,101794.82
2018-02-27T03:45:23.593Z,101790.84
2018-02-27T03:47:50.981Z,101790.47
2018-02-27T03:50:18.363Z,101797.64
2018-02-27T03:52:45.754Z,101798.39
2018-02-27T03:55:13.143Z,101792.50
2018-02-27T03:57:40.535Z,101793.00
2018-02-27T04:00:08.016Z,101793.73
2018-02-27T04:02:35.403Z,101790.02
2018-02-27T04:05:02.811Z,101783.92
2018-02-27T04:07:30.218Z,101778.12
2018-02-27T04:09:57.605Z,101780.06
2018-02-27T04:12:24.991Z,101779.31
2018-02-27T04:14:52.381Z,101773.57
2018-02-27T04:17:19.786Z,101773.70
2018-02-27T04:19:47.186Z,101763.88
2018-02-27T04:22:14.608Z,101768.69
2018-02-27T04:24:41.979Z,101764.36
2018-02-27T04:27:09.394Z,101763.08
2018-02-27T04:29:36.798Z,101754.05
2018-02-27T04:32:04.211Z,101754.64
2018-02-27T04:34:31.598Z,101755.40
2018-02-27T04:36:58.994Z,101757.11
2018-02-27T04:39:26.391Z,101757.65
2018-02-27T04:41:53.799Z,101767.62
2018-02-27T04:44:21.186Z,101765.52
2018-02-27T04:46:48.753Z,101769.77
2018-02-27T04:49:16.136Z,101775.52
2018-02-27T04:51:43.528Z,101769.66
2018-02-27T04:54:10.916Z,101771.97
2018-02-27T04:56:38.309Z,101767.56
2018-02-27T04:59:05.702Z,101771.75
2018-02-27T05:01:33.094Z,101773.58
2018-02-27T05:04:00.511Z,101786.69
2018-02-27T05:06:27.922Z,101774.86
2018-02-27T05:08:55.322Z,101767.88
2018-02-27T05:11:22.794Z,101770.20
2018-02-27T05:13:50.206Z,101766.58
2018-02-27T05:16:17.604Z,101767.78
2018-02-27T05:18:45.008Z,101760.36
2018-02-27T05:21:12.405Z,101750.42
2018-02-27T05:23:39.795Z,101752.39
2018-02-27T05:26:07.183Z,101756.53
2018-02-27T05:28:34.577Z,101749.33
2018-02-27T05:31:01.977Z,101754.91
2018-02-27T05:33:29.366Z,101748.05
2018-02-27T05:35:56.761Z,101746.36
2018-02-27T05:38:24.194Z,101749.55
2018-02-27T05:40:51.584Z,101746.61
2018-02-27T05:43:18.975Z,101739.77
2018-02-27T05:45:46.369Z,101734.33
2018-02-27T05:48:13.765Z,101728.02
2018-02-27T05:50:41.160Z,101727.60
2018-02-27T05:53:08.557Z,101744.27
2018-02-27T05:55:35.947Z,101737.66
2018-02-27T05:58:03.402Z,101738.66
2018-02-27T06:00:30.798Z,101733.14
2018-02-27T06:02:58.192Z,101725.37
2018-02-27T06:05:25.581Z,101716.66
2018-02-27T06:07:52.978Z,101717.34
2018-02-27T06:10:20.365Z,101717.34
2018-02-27T06:12:47.780Z,101710.67
2018-02-27T06:15:15.146Z,101716.62
2018-02-27T06:17:42.544Z,101720.25
2018-02-27T06:20:09.930Z,101712.87
2018-02-27T06:22:37.335Z,101714.69
2018-02-27T06:25:04.718Z,101711.72
2018-02-27T06:27:32.179Z,101713.86
2018-02-27T06:29:59.572Z,101719.50
2018-02-27T06:32:27.000Z,101710.63
2018-02-27T06:34:54.443Z,101713.02
2018-02-27T06:37:21.868Z,101705.19
2018-02-27T06:39:49.254Z,101712.67
2018-02-27T06:42:16.707Z,101708.37
2018-02-27T06:44:44.110Z,101699.59
2018-02-27T06:47:11.527Z,101706.14
2018-02-27T06:49:38.923Z,101704.81
2018-02-27T06:52:06.314Z,101709.44
2018-02-27T06:54:33.714Z,101701.88
2018-02-27T06:57:01.102Z,101711.52
2018-02-27T06:59:28.506Z,101697.02
2018-02-27T07:01:55.906Z,101700.02
2018-02-27T07:04:23.295Z,101703.51
2018-02-27T07:06:50.778Z,101695.66
2018-02-27T07:09:18.186Z,101690.89
2018-02-27T07:11:45.591Z,101683.70
2018-02-27T07:14:12.974Z,101684.21
2018-02-27T07:16:40.366Z,101690.45
2018-02-27T07:19:07.814Z,101689.94
2018-02-27T07:21:35.206Z,101687.14
2018-02-27T07:24:02.604Z,101689.50
2018-02-27T07:26:29.991Z,101695.77
2018-02-27T07:28:57.384Z,101685.91
2018-02-27T07:31:24.778Z,101685.50
2018-02-27T07:33:52.257Z,101684.13
2018-02-27T07:36:19.651Z,101686.77
2018-02-27T07:38:47.050Z,101684.03
2018-02-27T07:41:14.441Z,101686.19
2018-02-27T07:43:41.847Z,101684.52
2018-02-27T07:46:09.234Z,101679.75
2018-02-27T07:48:36.638Z,101678.89
2018-02-27T07:51:04.023Z,101686.77
2018-02-27T07:53:31.497Z,101684.21
2018-02-27T07:55:58.886Z,101691.23
2018-02-27T07:58:26.309Z,101691.69
2018-02-27T08:00:53.768Z,101686.56
2018-02-27T08:03:21.185Z,101685.16
2018-02-27T08:05:48.571Z,101697.81
2018-02-27T08:08:16.031Z,101689.59
2018-02-27T08:10:43.427Z,101690.98
2018-02-27T08:13:10.836Z,101690.96
2018-02-27T08:15:38.218Z,101686.80
2018-02-27T08:18:05.614Z,101685.69
2018-02-27T08:20:32.994Z,101681.37
2018-02-27T08:23:00.390Z,101687.50
2018-02-27T08:25:27.805Z,101683.20
2018-02-27T08:27:55.266Z,101678.97
2018-02-27T08:30:22.666Z,101678.51
2018-02-27T08:32:50.047Z,101665.22
2018-02-27T08:35:17.479Z,101670.28
2018-02-27T08:37:44.858Z,101665.72
2018-02-27T08:40:12.346Z,101668.47
2018-02-27T08:42:39.727Z,101661.55
2018-02-27T08:45:07.137Z,101665.50
2018-02-27T08:47:34.517Z,101661.45
2018-02-27T08:50:01.912Z,101669.23
2018-02-27T08:52:29.290Z,101668.58
2018-02-27T08:54:56.770Z,101667.84
2018-02-27T08:57:24.743Z,101658.89
2018-02-27T08:59:52.206Z,101657.69
2018-02-27T09:02:19.595Z,101660.37
2018-02-27T09:04:46.981Z,101657.80
2018-02-27T09:07:14.462Z,101653.92
2018-02-27T09:09:41.850Z,101652.64
2018-02-27T09:12:09.258Z,101648.61
2018-02-27T09:14:36.650Z,101639.79
2018-02-27T09:17:04.030Z,101640.91
2018-02-27T09:19:31.437Z,101635.09
2018-02-27T09:21:58.817Z,101634.34
2018-02-27T09:24:26.261Z,101627.98
2018-02-27T09:26:53.706Z,101621.40
2018-02-27T09:29:21.094Z,101630.66
2018-02-27T09:31:48.479Z,101626.55
2018-02-27T09:34:15.863Z,101619.17
2018-02-27T09:36:43.246Z,101617.14
2018-02-27T09:39:10.650Z,101621.48
2018-02-27T09:41:38.038Z,101615.45
2018-02-27T09:44:05.434Z,101620.55
2018-02-27T09:46:32.964Z,101613.61
2018-02-27T09:49:00.342Z,101617.09
2018-02-27T09:51:27.721Z,101618.40
2018-02-27T09:53:55.110Z,101613.23
2018-02-27T09:56:22.526Z,101615.00
2018-02-27T09:58:49.926Z,101611.11
2018-02-27T10:01:17.325Z,101613.56
2018-02-27T10:03:44.697Z,101604.38
2018-02-27T10:06:12.099Z,101610.34
2018-02-27T10:08:39.488Z,101609.40
2018-02-27T10:11:06.927Z,101604.27
2018-02-27T10:13:34.363Z,101606.78
2018-02-27T10:16:01.806Z,101611.48
2018-02-27T10:18:29.268Z,101610.67
2018-02-27T10:20:56.672Z,101600.83
2018-02-27T10:23:24.079Z,101605.16
2018-02-27T10:25:51.480Z,101597.88
2018-02-27T10:28:18.863Z,101594.91
2018-02-27T10:30:46.353Z,101599.98
2018-02-27T10:33:13.731Z,101590.08
2018-02-27T10:35:41.122Z,101585.65
2018-02-27T10:38:08.521Z,101590.81
2018-02-27T10:40:36.007Z,101591.35
2018-02-27T10:43:03.386Z,101589.23
2018-02-27T10:45:30.786Z,101580.23
2018-02-27T10:47:58.171Z,101579.86
2018-02-27T10:50:25.574Z,101581.59
2018-02-27T10:52:52.980Z,101579.92
2018-02-27T10:55:20.414Z,101576.92
2018-02-27T10:57:47.794Z,101575.66
2018-02-27T11:00:21.851Z,101564.37
2018-02-27T11:02:49.319Z,101571.72
2018-02-27T11:05:16.707Z,101564.67
2018-02-27T11:07:44.105Z,101566.69
2018-02-27T11:10:11.490Z,101559.94
2018-02-27T11:12:38.882Z,101563.45
2018-02-27T11:15:06.378Z,101560.44
2018-02-27T11:17:33.847Z,101553.55
2018-02-27T11:20:01.239Z,101554.80
2018-02-27T11:22:28.631Z,101550.05
2018-02-27T11:24:56.014Z,101553.48
2018-02-27T11:27:23.411Z,101553.55
2018-02-27T11:29:50.836Z,101556.64
2018-02-27T11:32:18.225Z,101553.59
2018-02-27T11:34:45.635Z,101547.48
2018-02-27T11:37:13.029Z,101541.44
2018-02-27T11:39:40.414Z,101537.53
2018-02-27T11:42:07.827Z,101535.84
2018-02-27T11:44:35.215Z,101531.53
2018-02-27T11:47:02.607Z,101529.83
2018-02-27T11:49:29.992Z,101528.56
2018-02-27T11:51:57.417Z,101529.43
2018-02-27T11:54:24.818Z,101519.46
2018-02-27T11:56:52.326Z,101521.64
2018-02-27T11:59:19.714Z,101523.80
2018-02-27T12:01:47.100Z,101523.36
2018-02-27T12:04:14.597Z,101514.72
2018-02-27T12:06:41.979Z,101521.64
2018-02-27T12:09:09.406Z,101508.22
2018-02-27T12:11:36.790Z,101508.61
2018-02-27T12:14:04.177Z,101515.89
2018-02-27T12:16:31.571Z,101507.66
2018-02-27T12:18:58.954Z,101507.69
2018-02-27T12:21:26.347Z,101502.55
2018-02-27T12:23:53.730Z,101502.52
2018-02-27T12:26:21.191Z,101498.16
2018-02-27T12:28:48.582Z,101491.20
2018-02-27T12:31:15.965Z,101500.77
2018-02-27T12:33:43.355Z,101493.48
2018-02-27T12:36:10.750Z,101497.80
2018-02-27T12:38:38.131Z,101501.23
2018-02-27T12:41:05.523Z,101502.85
2018-02-27T12:43:32.901Z,101494.22
2018-02-27T12:46:00.294Z,101486.83
2018-02-27T12:48:27.787Z,101485.89
2018-02-27T12:50:55.175Z,101479.48
2018-02-27T12:53:22.556Z,101474.49
2018-02-27T12:55:49.938Z,101471.07
2018-02-27T12:58:17.450Z,101470.50
2018-02-27T13:00:44.794Z,101468.70
2018-02-27T13:03:12.182Z,101477.80
2018-02-27T13:05:39.575Z,101481.05
2018-02-27T13:08:06.960Z,101479.68
2018-02-27T13:10:34.370Z,101481.44
2018-02-27T13:13:01.839Z,101463.69
2018-02-27T13:15:29.259Z,101464.36
2018-02-27T13:17:56.634Z,101459.79
2018-02-27T13:20:24.026Z,101459.30
2018-02-27T13:22:51.410Z,101457.59
2018-02-27T13:25:18.795Z,101460.28
2018-02-27T13:27:46.198Z,101454.25
2018-02-27T13:30:13.592Z,101449.44
2018-02-27T13:32:40.994Z,101450.82
2018-02-27T13:35:08.366Z,101450.73
2018-02-27T13:37:35.797Z,101453.25
2018-02-27T13:40:03.186Z,101456.35
2018-02-27T13:42:30.579Z,101455.53
2018-02-27T13:44:58.027Z,101446.89
2018-02-27T13:47:25.462Z,101443.02
2018-02-27T13:49:52.862Z,101439.98
2018-02-27T13:52:20.317Z,101440.84
2018-02-27T13:54:47.770Z,101435.64
2018-02-27T13:57:15.165Z,101439.52
2018-02-27T13:59:42.652Z,101436.54
2018-02-27T14:02:10.051Z,101424.42
2018-02-27T14:04:37.437Z,101417.41
2018-02-27T14:07:04.823Z,101420.02
2018-02-27T14:09:32.210Z,101412.66
2018-02-27T14:11:59.618Z,101417.41
2018-02-27T14:14:27.031Z,101413.83
2018-02-27T14:16:54.518Z,101413.33
2018-02-27T14:19:21.978Z,101411.73
2018-02-27T14:21:49.350Z,101410.92
2018-02-27T14:24:16.746Z,101409.95
2018-02-27T14:26:44.170Z,101408.68
2018-02-27T14:29:11.625Z,101410.81
2018-02-27T14:31:39.016Z,101407.50
2018-02-27T14:34:06.436Z,101413.11
2018-02-27T14:36:33.893Z,101399.69
2018-02-27T14:39:01.294Z,101412.98
2018-02-27T14:41:28.703Z,101415.27
2018-02-27T14:43:56.090Z,101412.72
2018-02-27T14:46:23.519Z,101418.79
2018-02-27T14:48:50.905Z,101406.69
2018-02-27T14:51:18.331Z,101407.55
2018-02-27T14:53:45.807Z,101402.33
2018-02-27T14:56:13.191Z,101400.53
2018-02-27T14:58:40.580Z,101394.88
2018-02-27T15:01:07.971Z,101394.41
2018-02-27T15:03:35.374Z,101393.48
2018-02-27T15:06:02.761Z,101386.66
2018-02-27T15:08:30.146Z,101382.88
2018-02-27T15:10:57.550Z,101390.23
2018-02-27T15:13:24.939Z,101398.55
2018-02-27T15:15:52.332Z,101384.28
2018-02-27T15:18:19.804Z,101385.58
2018-02-27T15:20:47.203Z,101387.71
2018-02-27T15:23:14.583Z,101380.80
2018-02-27T15:25:42.066Z,101386.41
2018-02-27T15:28:09.452Z,101384.26
2018-02-27T15:30:36.849Z,101383.81
2018-02-27T15:33:04.227Z,101385.98
2018-02-27T15:35:31.622Z,101387.27
2018-02-27T15:37:59.012Z,101386.00
2018-02-27T15:40:26.435Z,101385.15
2018-02-27T15:42:53.820Z,101390.75
2018-02-27T15:45:21.207Z,101379.52
2018-02-27T15:47:48.599Z,101390.70
2018-02-27T15:50:16.018Z,101388.11
2018-02-27T15:52:43.406Z,101395.89
2018-02-27T15:55:10.810Z,101390.70
2018-02-27T15:57:38.295Z,101383.37
2018-02-27T16:00:05.679Z,101382.52
2018-02-27T16:02:33.071Z,101386.36
2018-02-27T16:05:00.527Z,101391.95
2018-02-27T16:07:27.930Z,101389.31
2018-02-27T16:09:55.318Z,101393.64
2018-02-27T16:12:22.710Z,101397.05
2018-02-27T16:14:50.150Z,101393.18
2018-02-27T16:17:17.535Z,101396.22
2018-02-27T16:19:44.915Z,101395.34
2018-02-27T16:22:12.323Z,101400.49
2018-02-27T16:24:39.710Z,101395.28
2018-02-27T16:27:07.165Z,101403.39
2018-02-27T16:29:34.535Z,101396.48
2018-02-27T16:32:01.927Z,101399.95
2018-02-27T16:34:29.335Z,101403.37
2018-02-27T16:36:56.710Z,101403.31
2018-02-27T16:39:24.090Z,101414.87
2018-02-27T16:41:51.482Z,101407.54
2018-02-27T16:44:18.864Z,101412.70
2018-02-27T16:46:46.260Z,101419.86
2018-02-27T16:49:13.647Z,101414.67
2018-02-27T16:51:41.034Z,101423.61
2018-02-27T16:54:09.281Z,101422.69
2018-02-27T16:56:36.670Z,101411.84
2018-02-27T16:59:04.058Z,101419.22
2018-02-27T17:01:31.454Z,101422.66
2018-02-27T17:03:59.379Z,101429.69
2018-02-27T17:06:26.773Z,101429.72
2018-02-27T17:08:54.159Z,101429.72
2018-02-27T17:11:21.550Z,101434.03
2018-02-27T17:13:48.937Z,101435.41
2018-02-27T17:16:16.323Z,101429.77
2018-02-27T17:18:43.718Z,101436.13
2018-02-27T17:21:11.114Z,101428.00
2018-02-27T17:23:38.494Z,101431.52
2018-02-27T17:26:05.897Z,101433.31
2018-02-27T17:28:33.319Z,101434.25
2018-02-27T17:31:00.710Z,101437.63
2018-02-27T17:33:28.102Z,101428.62
2018-02-27T17:35:55.489Z,101433.66
2018-02-27T17:38:22.880Z,101437.58
2018-02-27T17:40:50.270Z,101441.48
2018-02-27T17:43:17.662Z,101441.13
2018-02-27T17:45:45.049Z,101433.41
2018-02-27T17:48:12.438Z,101443.20
2018-02-27T17:50:39.831Z,101445.70
2018-02-27T17:53:07.222Z,101444.34
2018-02-27T17:55:34.651Z,101437.39
2018-02-27T17:58:02.045Z,101440.72
2018-02-27T18:00:29.425Z,101442.02
2018-02-27T18:02:56.919Z,101443.33
2018-02-27T18:05:24.317Z,101444.14
2018-02-27T18:07:51.703Z,101444.09
2018-02-27T18:10:19.106Z,101444.94
2018-02-27T18:12:46.538Z,101448.15
2018-02-27T18:15:13.928Z,101449.39
2018-02-27T18:17:41.332Z,101443.29
2018-02-27T18:20:08.718Z,101442.34
2018-02-27T18:22:36.110Z,101447.48
2018-02-27T18:25:03.499Z,101441.77
2018-02-27T18:27:30.916Z,101447.05
2018-02-27T18:29:58.307Z,101448.71
2018-02-27T18:32:25.710Z,101454.67
2018-02-27T18:34:53.102Z,101455.95
2018-02-27T18:37:20.496Z,101449.45
2018-02-27T18:39:47.943Z,101452.95
2018-02-27T18:42:15.290Z,101454.64
2018-02-27T18:44:42.672Z,101451.28
2018-02-27T18:47:10.065Z,101459.00
2018-02-27T18:49:37.478Z,101464.84
2018-02-27T18:52:04.889Z,101473.63
2018-02-27T18:54:32.262Z,101472.34
2018-02-27T18:56:59.677Z,101473.95
2018-02-27T18:59:27.066Z,101470.74
2018-02-27T19:01:54.484Z,101472.78
2018-02-27T19:04:21.944Z,101468.48
2018-02-27T19:06:49.334Z,101471.81
2018-02-27T19:09:16.727Z,101471.46
2018-02-27T19:11:44.119Z,101482.13
2018-02-27T19:14:11.499Z,101481.97
2018-02-27T19:16:38.896Z,101482.01
2018-02-27T19:19:06.291Z,101490.52
2018-02-27T19:21:33.677Z,101489.46
2018-02-27T19:24:01.089Z,101486.02
2018-02-27T19:26:28.477Z,101490.66
2018-02-27T19:28:55.906Z,101494.91
2018-02-27T19:31:23.294Z,101500.70
2018-02-27T19:33:50.695Z,101501.64
2018-02-27T19:36:18.908Z,101509.33
2018-02-27T19:38:46.312Z,101507.87
2018-02-27T19:41:13.706Z,101505.77
2018-02-27T19:43:41.111Z,101505.77
2018-02-27T19:46:08.500Z,101510.79
2018-02-27T19:48:35.983Z,101514.23
2018-02-27T19:51:03.366Z,101520.11
2018-02-27T19:53:30.794Z,101524.92
2018-02-27T19:55:58.364Z,101534.75
2018-02-27T19:58:25.782Z,101540.67
2018-02-27T20:00:53.179Z,101536.41
2018-02-27T20:03:20.569Z,101536.62
2018-02-27T20:05:48.072Z,101538.25
2018-02-27T20:08:15.511Z,101540.30
2018-02-27T20:10:42.907Z,101549.17
2018-02-27T20:13:10.322Z,101550.08
2018-02-27T20:15:37.707Z,101552.13
2018-02-27T20:18:10.635Z,101552.03
2018-02-27T20:20:38.020Z,101554.70
2018-02-27T20:23:10.974Z,101553.93
2018-02-27T20:25:38.369Z,101560.70
2018-02-27T20:28:08.130Z,101559.98
2018-02-27T20:30:35.717Z,101562.60
2018-02-27T20:33:03.142Z,101565.52
2018-02-27T20:35:30.586Z,101567.80
2018-02-27T20:37:57.975Z,101577.10
2018-02-27T20:40:25.367Z,101586.58
2018-02-27T20:42:52.774Z,101575.77
2018-02-27T20:45:20.167Z,101589.45
2018-02-27T20:47:47.619Z,101580.86
2018-02-27T20:50:15.015Z,101587.72
2018-02-27T20:52:42.423Z,101598.07
2018-02-27T20:55:09.814Z,101597.27
2018-02-27T20:57:37.227Z,101604.55
2018-02-27T21:00:04.614Z,101600.69
2018-02-27T21:02:32.052Z,101608.03
2018-02-27T21:04:59.446Z,101604.17
2018-02-27T21:07:26.919Z,101604.89
2018-02-27T21:09:54.295Z,101620.75
2018-02-27T21:12:21.707Z,101610.99
2018-02-27T21:14:49.673Z,101617.52
2018-02-27T21:17:17.215Z,101619.76
2018-02-27T21:19:44.562Z,101616.28
2018-02-27T21:22:11.991Z,101620.90
2018-02-27T21:24:39.399Z,101623.05
2018-02-27T21:27:06.787Z,101619.14
2018-02-27T21:29:34.207Z,101623.43
2018-02-27T21:32:01.904Z,101629.28
2018-02-27T21:34:29.306Z,101625.09
2018-02-27T21:36:56.719Z,101626.66
2018-02-27T21:39:24.114Z,101622.84
2018-02-27T21:41:51.608Z,101632.18
2018-02-27T21:44:18.990Z,101629.23
2018-02-27T21:46:46.406Z,101628.53
2018-02-27T21:49:13.809Z,101626.20
2018-02-27T21:51:41.237Z,101638.13
2018-02-27T21:54:08.626Z,101633.07
2018-02-27T21:56:36.016Z,101631.88
2018-02-27T21:59:03.415Z,101633.02
2018-02-27T22:01:30.812Z,101634.24
2018-02-27T22:03:58.286Z,101637.95
2018-02-27T22:06:25.679Z,101646.54
2018-02-27T22:11:26.127Z,101644.28
2018-02-27T22:13:53.531Z,101659.52
2018-02-27T22:16:21.013Z,101653.01
2018-02-27T22:18:48.401Z,101658.23
2018-02-27T22:21:15.802Z,101660.59
2018-02-27T22:23:43.192Z,101652.61
2018-02-27T22:26:10.586Z,101665.02
2018-02-27T22:28:37.978Z,101670.05
2018-02-27T22:31:05.371Z,101666.76
2018-02-27T22:33:32.759Z,101669.44
2018-02-27T22:36:00.171Z,101677.91
2018-02-27T22:38:27.564Z,101676.11
2018-02-27T22:40:54.953Z,101680.34
2018-02-27T22:43:22.358Z,101681.48
2018-02-27T22:45:49.846Z,101686.81
2018-02-27T22:48:17.238Z,101686.80
2018-02-27T22:50:44.623Z,101693.55
2018-02-27T22:53:12.023Z,101695.09
2018-02-27T22:55:39.416Z,101703.67
2018-02-27T22:58:06.806Z,101711.27
2018-02-27T23:00:40.051Z,101704.27
2018-02-27T23:03:07.457Z,101710.82
2018-02-27T23:05:34.845Z,101707.21
2018-02-27T23:08:02.227Z,101711.45
2018-02-27T23:10:29.622Z,101706.11
2018-02-27T23:12:57.082Z,101715.98
2018-02-27T23:15:25.470Z,101716.83
2018-02-27T23:17:52.858Z,101718.60
2018-02-27T23:20:20.254Z,101714.09
2018-02-27T23:22:47.652Z,101712.31
2018-02-27T23:25:17.984Z,101719.08
2018-02-27T23:27:45.410Z,101717.25
2018-02-27T23:30:12.863Z,101722.69
2018-02-27T23:32:42.923Z,101724.53
2018-02-27T23:35:11.029Z,101722.09
2018-02-27T23:37:38.418Z,101724.45
2018-02-27T23:40:05.818Z,101720.28
2018-02-27T23:42:33.203Z,101729.65
2018-02-27T23:45:00.602Z,101720.84
2018-02-27T23:47:28.094Z,101732.20
2018-02-27T23:49:56.262Z,101730.58
2018-02-27T23:52:23.672Z,101734.52
2018-02-27T23:54:51.078Z,101732.31
2018-02-27T23:57:18.462Z,101737.58
2018-02-27T23:59:45.866Z,101742.31
